sensor_id;sensor_type;location;lat;lon;timestamp;P1;durP1;ratioP1;P2;durP2;ratioP2
68479;SDS011;55469;48.934;12.050;2023-03-04T00:02:00;9.65;;;6.15;;
68479;SDS011;55469;48.934;12.050;2023-03-04T00:04:26;10.18;;;5.90;;
68479;SDS011;55469;48.934;12.050;2023-03-04T00:06:52;10.23;;;6.30;;
68479;SDS011;55469;48.934;12.050;2023-03-04T00:09:18;9.13;;;5.50;;
68479;SDS011;55469;48.934;12.050;2023-03-04T00:11:44;10.75;;;5.50;;
68479;SDS011;55469;48.934;12.050;2023-03-04T00:14:09;9.93;;;5.60;;
68479;SDS011;55469;48.934;12.050;2023-03-04T00:16:35;10.27;;;5.63;;
68479;SDS011;55469;48.934;12.050;2023-03-04T00:19:01;12.30;;;5.97;;
68479;SDS011;55469;48.934;12.050;2023-03-04T00:21:27;10.20;;;5.65;;
68479;SDS011;55469;48.934;12.050;2023-03-04T00:23:52;9.77;;;5.65;;
68479;SDS011;55469;48.934;12.050;2023-03-04T00:26:18;10.43;;;6.25;;
68479;SDS011;55469;48.934;12.050;2023-03-04T00:28:44;9.27;;;5.65;;
68479;SDS011;55469;48.934;12.050;2023-03-04T00:31:09;9.38;;;5.93;;
68479;SDS011;55469;48.934;12.050;2023-03-04T00:33:36;11.05;;;5.43;;
68479;SDS011;55469;48.934;12.050;2023-03-04T00:36:02;10.52;;;5.97;;
68479;SDS011;55469;48.934;12.050;2023-03-04T00:38:29;8.52;;;5.20;;
68479;SDS011;55469;48.934;12.050;2023-03-04T00:40:55;10.88;;;6.10;;
68479;SDS011;55469;48.934;12.050;2023-03-04T00:43:21;10.70;;;5.72;;
68479;SDS011;55469;48.934;12.050;2023-03-04T00:45:47;11.00;;;5.80;;
68479;SDS011;55469;48.934;12.050;2023-03-04T00:48:13;8.90;;;5.32;;
68479;SDS011;55469;48.934;12.050;2023-03-04T00:50:40;9.75;;;5.85;;
68479;SDS011;55469;48.934;12.050;2023-03-04T00:53:07;11.52;;;5.80;;
68479;SDS011;55469;48.934;12.050;2023-03-04T00:55:33;10.50;;;5.57;;
68479;SDS011;55469;48.934;12.050;2023-03-04T00:57:59;10.50;;;6.00;;
68479;SDS011;55469;48.934;12.050;2023-03-04T01:00:25;9.50;;;5.45;;
68479;SDS011;55469;48.934;12.050;2023-03-04T01:02:51;13.18;;;6.57;;
68479;SDS011;55469;48.934;12.050;2023-03-04T01:05:17;10.45;;;5.68;;
68479;SDS011;55469;48.934;12.050;2023-03-04T01:07:43;10.45;;;5.95;;
68479;SDS011;55469;48.934;12.050;2023-03-04T01:10:10;9.77;;;5.95;;
68479;SDS011;55469;48.934;12.050;2023-03-04T01:12:37;10.93;;;5.88;;
68479;SDS011;55469;48.934;12.050;2023-03-04T01:15:04;9.75;;;5.78;;
68479;SDS011;55469;48.934;12.050;2023-03-04T01:17:31;9.57;;;5.55;;
68479;SDS011;55469;48.934;12.050;2023-03-04T01:19:57;12.20;;;5.80;;
68479;SDS011;55469;48.934;12.050;2023-03-04T01:22:22;9.25;;;5.75;;
68479;SDS011;55469;48.934;12.050;2023-03-04T01:24:48;9.57;;;6.03;;
68479;SDS011;55469;48.934;12.050;2023-03-04T01:27:14;10.27;;;5.63;;
68479;SDS011;55469;48.934;12.050;2023-03-04T01:29:40;11.20;;;6.18;;
68479;SDS011;55469;48.934;12.050;2023-03-04T01:32:05;11.00;;;5.88;;
68479;SDS011;55469;48.934;12.050;2023-03-04T01:34:31;9.55;;;5.47;;
68479;SDS011;55469;48.934;12.050;2023-03-04T01:36:57;9.85;;;5.50;;
68479;SDS011;55469;48.934;12.050;2023-03-04T01:39:23;11.27;;;6.03;;
68479;SDS011;55469;48.934;12.050;2023-03-04T01:41:48;13.32;;;5.90;;
68479;SDS011;55469;48.934;12.050;2023-03-04T01:44:14;9.45;;;5.50;;
68479;SDS011;55469;48.934;12.050;2023-03-04T01:46:46;10.73;;;5.68;;
68479;SDS011;55469;48.934;12.050;2023-03-04T01:49:15;8.82;;;5.55;;
68479;SDS011;55469;48.934;12.050;2023-03-04T01:51:48;10.57;;;5.60;;
68479;SDS011;55469;48.934;12.050;2023-03-04T01:54:17;9.88;;;5.72;;
68479;SDS011;55469;48.934;12.050;2023-03-04T01:56:45;9.98;;;5.75;;
68479;SDS011;55469;48.934;12.050;2023-03-04T01:59:20;10.68;;;5.63;;
68479;SDS011;55469;48.934;12.050;2023-03-04T02:01:49;12.23;;;5.78;;
68479;SDS011;55469;48.934;12.050;2023-03-04T02:04:17;10.18;;;6.00;;
68479;SDS011;55469;48.934;12.050;2023-03-04T02:06:46;10.40;;;5.70;;
68479;SDS011;55469;48.934;12.050;2023-03-04T02:09:13;11.90;;;5.75;;
68479;SDS011;55469;48.934;12.050;2023-03-04T02:11:40;10.25;;;6.53;;
68479;SDS011;55469;48.934;12.050;2023-03-04T02:14:07;11.48;;;5.90;;
68479;SDS011;55469;48.934;12.050;2023-03-04T02:16:34;11.90;;;6.00;;
68479;SDS011;55469;48.934;12.050;2023-03-04T02:18:59;11.48;;;6.43;;
68479;SDS011;55469;48.934;12.050;2023-03-04T02:21:29;9.90;;;5.45;;
68479;SDS011;55469;48.934;12.050;2023-03-04T02:24:13;10.07;;;5.60;;
68479;SDS011;55469;48.934;12.050;2023-03-04T02:26:57;10.50;;;5.90;;
68479;SDS011;55469;48.934;12.050;2023-03-04T02:29:23;9.82;;;5.82;;
68479;SDS011;55469;48.934;12.050;2023-03-04T02:31:50;10.85;;;5.95;;
68479;SDS011;55469;48.934;12.050;2023-03-04T02:34:19;9.98;;;5.60;;
68479;SDS011;55469;48.934;12.050;2023-03-04T02:36:49;11.02;;;5.68;;
68479;SDS011;55469;48.934;12.050;2023-03-04T02:41:56;10.48;;;5.63;;
68479;SDS011;55469;48.934;12.050;2023-03-04T02:44:23;11.85;;;5.78;;
68479;SDS011;55469;48.934;12.050;2023-03-04T02:46:54;9.32;;;5.63;;
68479;SDS011;55469;48.934;12.050;2023-03-04T02:49:21;10.95;;;5.38;;
68479;SDS011;55469;48.934;12.050;2023-03-04T02:51:50;10.65;;;6.05;;
68479;SDS011;55469;48.934;12.050;2023-03-04T02:54:18;9.93;;;5.40;;
68479;SDS011;55469;48.934;12.050;2023-03-04T02:56:51;12.23;;;5.72;;
68479;SDS011;55469;48.934;12.050;2023-03-04T02:59:19;9.73;;;5.70;;
68479;SDS011;55469;48.934;12.050;2023-03-04T03:01:47;11.73;;;6.10;;
68479;SDS011;55469;48.934;12.050;2023-03-04T03:04:12;9.52;;;5.88;;
68479;SDS011;55469;48.934;12.050;2023-03-04T03:06:39;11.98;;;5.80;;
68479;SDS011;55469;48.934;12.050;2023-03-04T03:09:05;9.05;;;5.20;;
68479;SDS011;55469;48.934;12.050;2023-03-04T03:11:32;11.70;;;5.78;;
68479;SDS011;55469;48.934;12.050;2023-03-04T03:13:58;9.85;;;5.35;;
68479;SDS011;55469;48.934;12.050;2023-03-04T03:16:24;10.38;;;5.35;;
68479;SDS011;55469;48.934;12.050;2023-03-04T03:18:50;10.40;;;5.50;;
68479;SDS011;55469;48.934;12.050;2023-03-04T03:21:15;11.30;;;5.38;;
68479;SDS011;55469;48.934;12.050;2023-03-04T03:23:41;10.32;;;5.65;;
68479;SDS011;55469;48.934;12.050;2023-03-04T03:26:07;10.93;;;6.13;;
68479;SDS011;55469;48.934;12.050;2023-03-04T03:28:33;10.93;;;5.90;;
68479;SDS011;55469;48.934;12.050;2023-03-04T03:30:59;10.77;;;5.55;;
68479;SDS011;55469;48.934;12.050;2023-03-04T03:33:25;9.85;;;5.60;;
68479;SDS011;55469;48.934;12.050;2023-03-04T03:35:51;11.80;;;5.65;;
68479;SDS011;55469;48.934;12.050;2023-03-04T03:38:17;9.07;;;5.53;;
68479;SDS011;55469;48.934;12.050;2023-03-04T03:40:42;8.80;;;5.13;;
68479;SDS011;55469;48.934;12.050;2023-03-04T03:43:08;9.80;;;5.60;;
68479;SDS011;55469;48.934;12.050;2023-03-04T03:45:34;9.10;;;5.43;;
68479;SDS011;55469;48.934;12.050;2023-03-04T03:48:00;9.48;;;5.45;;
68479;SDS011;55469;48.934;12.050;2023-03-04T03:50:25;8.70;;;4.93;;
68479;SDS011;55469;48.934;12.050;2023-03-04T03:52:52;9.27;;;5.22;;
68479;SDS011;55469;48.934;12.050;2023-03-04T03:55:18;9.73;;;5.28;;
68479;SDS011;55469;48.934;12.050;2023-03-04T03:57:44;9.90;;;5.85;;
68479;SDS011;55469;48.934;12.050;2023-03-04T04:00:10;10.35;;;5.63;;
68479;SDS011;55469;48.934;12.050;2023-03-04T04:02:37;11.15;;;5.60;;
68479;SDS011;55469;48.934;12.050;2023-03-04T04:05:03;7.95;;;5.15;;
68479;SDS011;55469;48.934;12.050;2023-03-04T04:07:30;10.65;;;5.63;;
68479;SDS011;55469;48.934;12.050;2023-03-04T04:09:56;10.93;;;5.60;;
68479;SDS011;55469;48.934;12.050;2023-03-04T04:12:22;10.30;;;6.13;;
68479;SDS011;55469;48.934;12.050;2023-03-04T04:14:47;10.95;;;5.72;;
68479;SDS011;55469;48.934;12.050;2023-03-04T04:17:13;9.43;;;5.32;;
68479;SDS011;55469;48.934;12.050;2023-03-04T04:19:39;12.63;;;5.97;;
68479;SDS011;55469;48.934;12.050;2023-03-04T04:22:06;9.98;;;5.97;;
68479;SDS011;55469;48.934;12.050;2023-03-04T04:24:35;10.05;;;5.65;;
68479;SDS011;55469;48.934;12.050;2023-03-04T04:27:00;8.90;;;4.90;;
68479;SDS011;55469;48.934;12.050;2023-03-04T04:29:28;7.85;;;5.00;;
68479;SDS011;55469;48.934;12.050;2023-03-04T04:31:54;9.05;;;5.13;;
68479;SDS011;55469;48.934;12.050;2023-03-04T04:34:19;9.07;;;5.13;;
68479;SDS011;55469;48.934;12.050;2023-03-04T04:36:45;10.00;;;5.00;;
68479;SDS011;55469;48.934;12.050;2023-03-04T04:39:11;10.55;;;5.60;;
68479;SDS011;55469;48.934;12.050;2023-03-04T04:41:39;9.85;;;5.70;;
68479;SDS011;55469;48.934;12.050;2023-03-04T04:44:06;10.85;;;5.72;;
68479;SDS011;55469;48.934;12.050;2023-03-04T04:46:33;9.20;;;5.10;;
68479;SDS011;55469;48.934;12.050;2023-03-04T04:48:59;9.15;;;5.35;;
68479;SDS011;55469;48.934;12.050;2023-03-04T04:51:25;10.35;;;5.53;;
68479;SDS011;55469;48.934;12.050;2023-03-04T04:53:52;9.23;;;5.13;;
68479;SDS011;55469;48.934;12.050;2023-03-04T04:56:19;11.35;;;5.55;;
68479;SDS011;55469;48.934;12.050;2023-03-04T04:58:48;9.05;;;4.97;;
68479;SDS011;55469;48.934;12.050;2023-03-04T05:01:14;8.90;;;5.47;;
68479;SDS011;55469;48.934;12.050;2023-03-04T05:03:40;10.05;;;5.32;;
68479;SDS011;55469;48.934;12.050;2023-03-04T05:06:07;9.57;;;5.57;;
68479;SDS011;55469;48.934;12.050;2023-03-04T05:08:35;10.07;;;5.75;;
68479;SDS011;55469;48.934;12.050;2023-03-04T05:11:01;8.82;;;5.50;;
68479;SDS011;55469;48.934;12.050;2023-03-04T05:13:28;9.13;;;5.00;;
68479;SDS011;55469;48.934;12.050;2023-03-04T05:15:54;8.70;;;5.13;;
68479;SDS011;55469;48.934;12.050;2023-03-04T05:18:21;8.77;;;5.10;;
68479;SDS011;55469;48.934;12.050;2023-03-04T05:20:53;10.48;;;5.18;;
68479;SDS011;55469;48.934;12.050;2023-03-04T05:23:21;8.60;;;4.97;;
68479;SDS011;55469;48.934;12.050;2023-03-04T05:25:47;8.38;;;4.95;;
68479;SDS011;55469;48.934;12.050;2023-03-04T05:28:13;9.82;;;5.35;;
68479;SDS011;55469;48.934;12.050;2023-03-04T05:30:40;9.13;;;5.30;;
68479;SDS011;55469;48.934;12.050;2023-03-04T05:33:08;10.20;;;5.43;;
68479;SDS011;55469;48.934;12.050;2023-03-04T05:35:36;8.48;;;5.10;;
68479;SDS011;55469;48.934;12.050;2023-03-04T05:38:04;10.00;;;5.28;;
68479;SDS011;55469;48.934;12.050;2023-03-04T05:40:33;11.50;;;5.88;;
68479;SDS011;55469;48.934;12.050;2023-03-04T05:42:58;9.68;;;5.32;;
68479;SDS011;55469;48.934;12.050;2023-03-04T05:45:24;9.27;;;5.32;;
68479;SDS011;55469;48.934;12.050;2023-03-04T05:47:51;10.68;;;5.28;;
68479;SDS011;55469;48.934;12.050;2023-03-04T05:50:18;10.02;;;5.30;;
68479;SDS011;55469;48.934;12.050;2023-03-04T05:52:45;11.82;;;5.88;;
68479;SDS011;55469;48.934;12.050;2023-03-04T05:55:11;10.43;;;5.30;;
68479;SDS011;55469;48.934;12.050;2023-03-04T05:57:37;9.98;;;5.60;;
68479;SDS011;55469;48.934;12.050;2023-03-04T06:00:03;10.68;;;5.45;;
68479;SDS011;55469;48.934;12.050;2023-03-04T06:02:33;11.18;;;5.78;;
68479;SDS011;55469;48.934;12.050;2023-03-04T06:05:00;10.13;;;4.90;;
68479;SDS011;55469;48.934;12.050;2023-03-04T06:07:26;10.50;;;5.90;;
68479;SDS011;55469;48.934;12.050;2023-03-04T06:09:51;10.80;;;5.38;;
68479;SDS011;55469;48.934;12.050;2023-03-04T06:12:17;9.80;;;5.22;;
68479;SDS011;55469;48.934;12.050;2023-03-04T06:14:43;12.25;;;6.22;;
68479;SDS011;55469;48.934;12.050;2023-03-04T06:17:09;11.32;;;5.70;;
68479;SDS011;55469;48.934;12.050;2023-03-04T06:19:34;9.90;;;5.65;;
68479;SDS011;55469;48.934;12.050;2023-03-04T06:22:02;9.27;;;5.65;;
68479;SDS011;55469;48.934;12.050;2023-03-04T06:24:28;10.57;;;5.40;;
68479;SDS011;55469;48.934;12.050;2023-03-04T06:26:54;12.55;;;6.55;;
68479;SDS011;55469;48.934;12.050;2023-03-04T06:29:20;10.35;;;5.78;;
68479;SDS011;55469;48.934;12.050;2023-03-04T06:31:46;10.27;;;5.22;;
68479;SDS011;55469;48.934;12.050;2023-03-04T06:34:11;9.85;;;5.50;;
68479;SDS011;55469;48.934;12.050;2023-03-04T06:36:37;12.00;;;6.10;;
68479;SDS011;55469;48.934;12.050;2023-03-04T06:39:03;12.65;;;6.35;;
68479;SDS011;55469;48.934;12.050;2023-03-04T06:41:30;9.57;;;5.40;;
68479;SDS011;55469;48.934;12.050;2023-03-04T06:43:56;11.70;;;5.78;;
68479;SDS011;55469;48.934;12.050;2023-03-04T06:46:22;9.00;;;5.50;;
68479;SDS011;55469;48.934;12.050;2023-03-04T06:48:48;12.73;;;6.13;;
68479;SDS011;55469;48.934;12.050;2023-03-04T06:51:13;9.43;;;5.22;;
68479;SDS011;55469;48.934;12.050;2023-03-04T06:53:40;11.70;;;6.00;;
68479;SDS011;55469;48.934;12.050;2023-03-04T06:56:07;10.55;;;5.80;;
68479;SDS011;55469;48.934;12.050;2023-03-04T06:58:35;10.40;;;5.35;;
68479;SDS011;55469;48.934;12.050;2023-03-04T07:01:14;14.07;;;6.68;;
68479;SDS011;55469;48.934;12.050;2023-03-04T07:03:44;11.40;;;6.05;;
68479;SDS011;55469;48.934;12.050;2023-03-04T07:06:13;13.75;;;6.63;;
68479;SDS011;55469;48.934;12.050;2023-03-04T07:08:41;13.55;;;6.82;;
68479;SDS011;55469;48.934;12.050;2023-03-04T07:11:08;12.20;;;6.40;;
68479;SDS011;55469;48.934;12.050;2023-03-04T07:13:34;15.60;;;6.93;;
68479;SDS011;55469;48.934;12.050;2023-03-04T07:16:03;17.58;;;7.32;;
68479;SDS011;55469;48.934;12.050;2023-03-04T07:18:30;12.77;;;6.65;;
68479;SDS011;55469;48.934;12.050;2023-03-04T07:20:57;15.00;;;7.22;;
68479;SDS011;55469;48.934;12.050;2023-03-04T07:23:23;17.55;;;8.05;;
68479;SDS011;55469;48.934;12.050;2023-03-04T07:25:49;16.00;;;7.75;;
68479;SDS011;55469;48.934;12.050;2023-03-04T07:28:15;14.95;;;7.85;;
68479;SDS011;55469;48.934;12.050;2023-03-04T07:30:41;13.93;;;7.10;;
68479;SDS011;55469;48.934;12.050;2023-03-04T07:33:07;11.90;;;6.28;;
68479;SDS011;55469;48.934;12.050;2023-03-04T07:35:33;15.95;;;8.05;;
68479;SDS011;55469;48.934;12.050;2023-03-04T07:37:58;13.80;;;7.28;;
68479;SDS011;55469;48.934;12.050;2023-03-04T07:40:24;14.60;;;7.22;;
68479;SDS011;55469;48.934;12.050;2023-03-04T07:42:50;13.48;;;6.95;;
68479;SDS011;55469;48.934;12.050;2023-03-04T07:45:18;13.98;;;6.63;;
68479;SDS011;55469;48.934;12.050;2023-03-04T07:47:43;13.85;;;6.57;;
68479;SDS011;55469;48.934;12.050;2023-03-04T07:50:10;16.45;;;8.13;;
68479;SDS011;55469;48.934;12.050;2023-03-04T07:52:40;17.45;;;7.72;;
68479;SDS011;55469;48.934;12.050;2023-03-04T07:55:08;14.15;;;6.95;;
68479;SDS011;55469;48.934;12.050;2023-03-04T07:57:39;14.68;;;7.20;;
68479;SDS011;55469;48.934;12.050;2023-03-04T08:00:07;14.45;;;7.43;;
68479;SDS011;55469;48.934;12.050;2023-03-04T08:02:35;14.65;;;7.05;;
68479;SDS011;55469;48.934;12.050;2023-03-04T08:05:01;15.40;;;7.35;;
68479;SDS011;55469;48.934;12.050;2023-03-04T08:07:26;14.68;;;6.90;;
68479;SDS011;55469;48.934;12.050;2023-03-04T08:09:52;14.30;;;7.50;;
68479;SDS011;55469;48.934;12.050;2023-03-04T08:12:18;14.52;;;7.25;;
68479;SDS011;55469;48.934;12.050;2023-03-04T08:14:44;17.02;;;7.75;;
68479;SDS011;55469;48.934;12.050;2023-03-04T08:17:09;15.95;;;7.70;;
68479;SDS011;55469;48.934;12.050;2023-03-04T08:19:38;13.85;;;6.80;;
68479;SDS011;55469;48.934;12.050;2023-03-04T08:22:04;16.00;;;7.13;;
68479;SDS011;55469;48.934;12.050;2023-03-04T08:24:31;15.50;;;7.30;;
68479;SDS011;55469;48.934;12.050;2023-03-04T08:26:56;13.35;;;6.32;;
68479;SDS011;55469;48.934;12.050;2023-03-04T08:29:22;13.68;;;7.45;;
68479;SDS011;55469;48.934;12.050;2023-03-04T08:31:50;13.52;;;7.20;;
68479;SDS011;55469;48.934;12.050;2023-03-04T08:34:18;14.13;;;7.00;;
68479;SDS011;55469;48.934;12.050;2023-03-04T08:36:46;13.52;;;7.00;;
68479;SDS011;55469;48.934;12.050;2023-03-04T08:39:12;14.02;;;7.28;;
68479;SDS011;55469;48.934;12.050;2023-03-04T08:41:40;15.02;;;6.85;;
68479;SDS011;55469;48.934;12.050;2023-03-04T08:44:06;14.50;;;7.00;;
68479;SDS011;55469;48.934;12.050;2023-03-04T08:46:35;15.10;;;7.30;;
68479;SDS011;55469;48.934;12.050;2023-03-04T08:49:05;14.95;;;7.28;;
68479;SDS011;55469;48.934;12.050;2023-03-04T08:51:31;14.75;;;6.90;;
68479;SDS011;55469;48.934;12.050;2023-03-04T08:53:59;14.18;;;7.07;;
68479;SDS011;55469;48.934;12.050;2023-03-04T08:56:29;16.92;;;7.47;;
68479;SDS011;55469;48.934;12.050;2023-03-04T08:58:54;15.43;;;7.43;;
68479;SDS011;55469;48.934;12.050;2023-03-04T09:01:20;16.95;;;7.13;;
68479;SDS011;55469;48.934;12.050;2023-03-04T09:03:46;17.02;;;7.88;;
68479;SDS011;55469;48.934;12.050;2023-03-04T09:06:15;16.48;;;7.93;;
68479;SDS011;55469;48.934;12.050;2023-03-04T09:08:42;19.80;;;7.72;;
68479;SDS011;55469;48.934;12.050;2023-03-04T09:11:09;15.82;;;7.40;;
68479;SDS011;55469;48.934;12.050;2023-03-04T09:13:35;20.67;;;8.25;;
68479;SDS011;55469;48.934;12.050;2023-03-04T09:16:01;16.20;;;7.97;;
68479;SDS011;55469;48.934;12.050;2023-03-04T09:18:28;16.98;;;7.53;;
68479;SDS011;55469;48.934;12.050;2023-03-04T09:20:54;18.17;;;8.43;;
68479;SDS011;55469;48.934;12.050;2023-03-04T09:23:21;17.55;;;7.63;;
68479;SDS011;55469;48.934;12.050;2023-03-04T09:25:47;23.38;;;8.02;;
68479;SDS011;55469;48.934;12.050;2023-03-04T09:28:13;26.63;;;10.82;;
68479;SDS011;55469;48.934;12.050;2023-03-04T09:30:40;30.08;;;13.43;;
68479;SDS011;55469;48.934;12.050;2023-03-04T09:33:07;24.15;;;8.98;;
68479;SDS011;55469;48.934;12.050;2023-03-04T09:35:33;27.15;;;8.82;;
68479;SDS011;55469;48.934;12.050;2023-03-04T09:37:59;25.75;;;9.02;;
68479;SDS011;55469;48.934;12.050;2023-03-04T09:40:26;21.77;;;8.73;;
68479;SDS011;55469;48.934;12.050;2023-03-04T09:43:01;22.33;;;8.90;;
68479;SDS011;55469;48.934;12.050;2023-03-04T09:45:41;17.58;;;7.57;;
68479;SDS011;55469;48.934;12.050;2023-03-04T09:48:13;22.88;;;8.90;;
68479;SDS011;55469;48.934;12.050;2023-03-04T09:50:54;20.25;;;7.28;;
68479;SDS011;55469;48.934;12.050;2023-03-04T09:56:56;19.50;;;7.35;;
68479;SDS011;55469;48.934;12.050;2023-03-04T09:59:48;19.75;;;7.35;;
68479;SDS011;55469;48.934;12.050;2023-03-04T10:05:25;16.35;;;6.78;;
68479;SDS011;55469;48.934;12.050;2023-03-04T10:07:55;17.25;;;6.53;;
68479;SDS011;55469;48.934;12.050;2023-03-04T10:10:44;14.65;;;6.25;;
68479;SDS011;55469;48.934;12.050;2023-03-04T10:13:17;18.55;;;6.93;;
68479;SDS011;55469;48.934;12.050;2023-03-04T10:15:55;18.73;;;6.55;;
68479;SDS011;55469;48.934;12.050;2023-03-04T10:19:10;12.70;;;5.75;;
68479;SDS011;55469;48.934;12.050;2023-03-04T10:23:52;17.33;;;6.13;;
68479;SDS011;55469;48.934;12.050;2023-03-04T10:26:18;17.38;;;6.65;;
68479;SDS011;55469;48.934;12.050;2023-03-04T10:28:46;13.52;;;5.38;;
68479;SDS011;55469;48.934;12.050;2023-03-04T10:31:16;12.60;;;6.10;;
68479;SDS011;55469;48.934;12.050;2023-03-04T10:34:08;13.48;;;6.07;;
68479;SDS011;55469;48.934;12.050;2023-03-04T10:36:44;16.05;;;6.60;;
68479;SDS011;55469;48.934;12.050;2023-03-04T10:42:05;15.15;;;5.75;;
68479;SDS011;55469;48.934;12.050;2023-03-04T10:44:44;14.77;;;6.30;;
68479;SDS011;55469;48.934;12.050;2023-03-04T10:47:16;14.73;;;6.75;;
68479;SDS011;55469;48.934;12.050;2023-03-04T10:49:49;16.30;;;6.78;;
68479;SDS011;55469;48.934;12.050;2023-03-04T10:52:21;12.52;;;6.03;;
68479;SDS011;55469;48.934;12.050;2023-03-04T10:55:06;16.58;;;6.78;;
68479;SDS011;55469;48.934;12.050;2023-03-04T10:57:42;16.60;;;7.07;;
68479;SDS011;55469;48.934;12.050;2023-03-04T11:08:57;14.90;;;6.70;;
68479;SDS011;55469;48.934;12.050;2023-03-04T11:11:42;13.52;;;6.85;;
68479;SDS011;55469;48.934;12.050;2023-03-04T11:14:15;17.38;;;7.43;;
68479;SDS011;55469;48.934;12.050;2023-03-04T11:17:23;18.10;;;6.90;;
68479;SDS011;55469;48.934;12.050;2023-03-04T11:22:43;14.13;;;6.53;;
68479;SDS011;55469;48.934;12.050;2023-03-04T11:25:20;15.70;;;6.78;;
68479;SDS011;55469;48.934;12.050;2023-03-04T11:27:52;15.23;;;7.10;;
68479;SDS011;55469;48.934;12.050;2023-03-04T11:30:53;16.27;;;7.18;;
68479;SDS011;55469;48.934;12.050;2023-03-04T11:33:26;17.75;;;7.10;;
68479;SDS011;55469;48.934;12.050;2023-03-04T11:39:33;14.50;;;6.97;;
68479;SDS011;55469;48.934;12.050;2023-03-04T11:44:45;14.10;;;6.53;;
68479;SDS011;55469;48.934;12.050;2023-03-04T12:16:45;16.20;;;7.03;;
68479;SDS011;55469;48.934;12.050;2023-03-04T12:33:07;15.45;;;7.75;;
68479;SDS011;55469;48.934;12.050;2023-03-04T12:39:31;16.88;;;7.45;;
68479;SDS011;55469;48.934;12.050;2023-03-04T12:42:25;16.17;;;7.75;;
68479;SDS011;55469;48.934;12.050;2023-03-04T12:45:12;19.25;;;7.85;;
68479;SDS011;55469;48.934;12.050;2023-03-04T12:48:18;21.67;;;9.55;;
68479;SDS011;55469;48.934;12.050;2023-03-04T12:56:53;21.20;;;7.70;;
68479;SDS011;55469;48.934;12.050;2023-03-04T12:59:25;22.85;;;8.80;;
68479;SDS011;55469;48.934;12.050;2023-03-04T13:14:02;23.02;;;7.30;;
68479;SDS011;55469;48.934;12.050;2023-03-04T13:16:48;18.98;;;7.20;;
68479;SDS011;55469;48.934;12.050;2023-03-04T13:56:44;17.13;;;7.03;;
68479;SDS011;55469;48.934;12.050;2023-03-04T14:02:13;15.18;;;6.93;;
68479;SDS011;55469;48.934;12.050;2023-03-04T14:04:45;11.43;;;6.50;;
68479;SDS011;55469;48.934;12.050;2023-03-04T14:12:38;11.45;;;5.90;;
68479;SDS011;55469;48.934;12.050;2023-03-04T14:17:37;11.02;;;5.32;;
68479;SDS011;55469;48.934;12.050;2023-03-04T14:20:06;23.98;;;6.07;;
68479;SDS011;55469;48.934;12.050;2023-03-04T14:22:55;21.15;;;6.07;;
68479;SDS011;55469;48.934;12.050;2023-03-04T14:25:26;20.08;;;6.07;;
68479;SDS011;55469;48.934;12.050;2023-03-04T14:30:36;17.23;;;5.88;;
68479;SDS011;55469;48.934;12.050;2023-03-04T14:33:05;20.67;;;6.20;;
68479;SDS011;55469;48.934;12.050;2023-03-04T14:35:32;26.58;;;5.88;;
68479;SDS011;55469;48.934;12.050;2023-03-04T14:40:35;13.88;;;5.20;;
68479;SDS011;55469;48.934;12.050;2023-03-04T14:43:12;14.13;;;5.53;;
68479;SDS011;55469;48.934;12.050;2023-03-04T14:45:50;17.25;;;5.43;;
68479;SDS011;55469;48.934;12.050;2023-03-04T14:48:40;17.10;;;6.40;;
68479;SDS011;55469;48.934;12.050;2023-03-04T14:51:29;12.80;;;5.43;;
68479;SDS011;55469;48.934;12.050;2023-03-04T14:56:59;18.05;;;7.28;;
68479;SDS011;55469;48.934;12.050;2023-03-04T14:59:45;12.70;;;5.97;;
68479;SDS011;55469;48.934;12.050;2023-03-04T15:02:15;16.20;;;5.72;;
68479;SDS011;55469;48.934;12.050;2023-03-04T15:04:56;17.45;;;7.20;;
68479;SDS011;55469;48.934;12.050;2023-03-04T15:07:29;16.08;;;5.63;;
68479;SDS011;55469;48.934;12.050;2023-03-04T15:09:59;19.52;;;6.15;;
68479;SDS011;55469;48.934;12.050;2023-03-04T15:12:29;20.15;;;6.45;;
68479;SDS011;55469;48.934;12.050;2023-03-04T15:14:59;16.13;;;5.75;;
68479;SDS011;55469;48.934;12.050;2023-03-04T15:17:58;11.60;;;5.35;;
68479;SDS011;55469;48.934;12.050;2023-03-04T15:20:29;12.18;;;6.32;;
68479;SDS011;55469;48.934;12.050;2023-03-04T15:23:00;12.95;;;5.03;;
68479;SDS011;55469;48.934;12.050;2023-03-04T15:25:31;11.65;;;5.00;;
68479;SDS011;55469;48.934;12.050;2023-03-04T15:27:58;13.10;;;6.40;;
68479;SDS011;55469;48.934;12.050;2023-03-04T15:30:25;13.63;;;5.93;;
68479;SDS011;55469;48.934;12.050;2023-03-04T15:32:54;17.13;;;6.35;;
68479;SDS011;55469;48.934;12.050;2023-03-04T15:35:21;17.40;;;6.20;;
68479;SDS011;55469;48.934;12.050;2023-03-04T15:37:49;13.52;;;4.22;;
68479;SDS011;55469;48.934;12.050;2023-03-04T15:43:17;11.48;;;5.45;;
68479;SDS011;55469;48.934;12.050;2023-03-04T15:45:44;9.73;;;4.97;;
68479;SDS011;55469;48.934;12.050;2023-03-04T15:48:12;12.73;;;5.55;;
68479;SDS011;55469;48.934;12.050;2023-03-04T15:50:44;10.73;;;5.53;;
68479;SDS011;55469;48.934;12.050;2023-03-04T15:53:36;12.52;;;6.28;;
68479;SDS011;55469;48.934;12.050;2023-03-04T15:56:07;12.30;;;5.30;;
68479;SDS011;55469;48.934;12.050;2023-03-04T15:58:38;16.13;;;5.38;;
68479;SDS011;55469;48.934;12.050;2023-03-04T16:01:04;9.63;;;5.90;;
68479;SDS011;55469;48.934;12.050;2023-03-04T16:03:30;12.10;;;6.07;;
68479;SDS011;55469;48.934;12.050;2023-03-04T16:05:56;10.02;;;5.05;;
68479;SDS011;55469;48.934;12.050;2023-03-04T16:08:22;10.15;;;5.65;;
68479;SDS011;55469;48.934;12.050;2023-03-04T16:10:49;8.57;;;4.47;;
68479;SDS011;55469;48.934;12.050;2023-03-04T16:13:18;12.20;;;6.15;;
68479;SDS011;55469;48.934;12.050;2023-03-04T16:15:47;11.18;;;5.25;;
68479;SDS011;55469;48.934;12.050;2023-03-04T16:18:14;11.10;;;5.00;;
68479;SDS011;55469;48.934;12.050;2023-03-04T16:20:42;10.38;;;4.72;;
68479;SDS011;55469;48.934;12.050;2023-03-04T16:23:12;11.80;;;5.88;;
68479;SDS011;55469;48.934;12.050;2023-03-04T16:25:44;10.65;;;5.45;;
68479;SDS011;55469;48.934;12.050;2023-03-04T16:28:12;11.20;;;5.63;;
68479;SDS011;55469;48.934;12.050;2023-03-04T16:30:38;9.40;;;4.90;;
68479;SDS011;55469;48.934;12.050;2023-03-04T16:33:04;12.82;;;6.15;;
68479;SDS011;55469;48.934;12.050;2023-03-04T16:35:30;11.75;;;6.25;;
68479;SDS011;55469;48.934;12.050;2023-03-04T16:37:58;12.73;;;5.80;;
68479;SDS011;55469;48.934;12.050;2023-03-04T16:40:28;15.05;;;6.03;;
68479;SDS011;55469;48.934;12.050;2023-03-04T16:42:55;12.85;;;6.75;;
68479;SDS011;55469;48.934;12.050;2023-03-04T16:45:22;12.65;;;6.28;;
68479;SDS011;55469;48.934;12.050;2023-03-04T16:47:51;11.35;;;6.50;;
68479;SDS011;55469;48.934;12.050;2023-03-04T16:50:18;9.77;;;5.85;;
68479;SDS011;55469;48.934;12.050;2023-03-04T16:52:51;10.98;;;6.60;;
68479;SDS011;55469;48.934;12.050;2023-03-04T16:55:21;14.73;;;6.60;;
68479;SDS011;55469;48.934;12.050;2023-03-04T16:57:50;10.40;;;5.30;;
68479;SDS011;55469;48.934;12.050;2023-03-04T17:00:17;12.95;;;6.32;;
68479;SDS011;55469;48.934;12.050;2023-03-04T17:02:53;9.98;;;5.60;;
68479;SDS011;55469;48.934;12.050;2023-03-04T17:05:25;8.50;;;5.68;;
68479;SDS011;55469;48.934;12.050;2023-03-04T17:07:54;12.45;;;5.72;;
68479;SDS011;55469;48.934;12.050;2023-03-04T17:10:22;10.25;;;6.35;;
68479;SDS011;55469;48.934;12.050;2023-03-04T17:12:48;12.85;;;6.28;;